Search for airport 
image banner adimage banner ad
image banner ad

VIBS - Beas

Located in , India

ICAO - , IATA -

Data provided by Airmate  

General information

Coordinates: N31°33'41" E75°20'24"
Elevation is feet MSL.
 
Rated:
View ratings: [VIEW]


View others Airports in Punjab

Operational data

Open for public use
Current time UTC:
Current local time:
Weather at : VIAR - Amritsar ( 53 km )
METAR: VIAR 200930Z 29008KT 3500 HZ SCT035 SCT080 30/23 Q1009 NOSIG
TAF: TAF VIAR 200800Z 2009/2018 11004KT 4000 HZ SCT035 SCT090 TEMPO 2011/2013 FEW035CB BECMG 2015/2017 VRB02KT 3000 HZ
View NOTAMs / SUP AIP / TFR affecting this airport [VIEW]
Communications frequencies: [VIEW]

Runways:

Airport contact information

Address: India

Satellite view of VIBS